Aviation Digital Data Service (ADDS)

Output produced by METARs form (0203 UTC 20 September 2020)
found at http://www.aviationweather.gov/metar/data/
 
METAR text: LSZA 200150Z AUTO VRB02KT 9999 BKN095 16/15 Q1018
Conditions at: LSZA (LUGANO (PVT/AUT), CH) observed 0150 UTC 20 September 2020
Temperature: 16.0°C (61°F)
Dewpoint: 15.0°C (59°F) [RH = 94%]
Pressure (altimeter): 30.06 inches Hg (1018.0 mb)
Winds: variable direction winds at 2 MPH (2 knots; 1.0 m/s)
Visibility: 6 or more miles (10+ km)
Ceiling: 9500 feet AGL
Clouds: broken clouds at 9500 feet AGL
Weather: no significant weather observed at this time

METAR text: LSZA 200120Z AUTO VRB02KT 9999 FEW085 16/15 Q1018
Conditions at: LSZA (LUGANO (PVT/AUT), CH) observed 0120 UTC 20 September 2020
Temperature: 16.0°C (61°F)
Dewpoint: 15.0°C (59°F) [RH = 94%]
Pressure (altimeter): 30.06 inches Hg (1018.0 mb)
Winds: variable direction winds at 2 MPH (2 knots; 1.0 m/s)
Visibility: 6 or more miles (10+ km)
Ceiling: at least 12,000 feet AGL
Clouds: few clouds at 8500 feet AGL
Weather: no significant weather observed at this time

METAR text: LSZA 200050Z AUTO 36003KT 9999 SCT036 BKN080 16/15 Q1018
Conditions at: LSZA (LUGANO (PVT/AUT), CH) observed 0050 UTC 20 September 2020
Temperature: 16.0°C (61°F)
Dewpoint: 15.0°C (59°F) [RH = 94%]
Pressure (altimeter): 30.06 inches Hg (1018.0 mb)
Winds: from the N (360 degrees) at 3 MPH (3 knots; 1.5 m/s)
Visibility: 6 or more miles (10+ km)
Ceiling: 8000 feet AGL
Clouds: scattered clouds at 3600 feet AGL
broken clouds at 8000 feet AGL
Weather: no significant weather observed at this time

METAR text: LSZA 200020Z AUTO VRB01KT 9999 FEW080 16/15 Q1018
Conditions at: LSZA (LUGANO (PVT/AUT), CH) observed 0020 UTC 20 September 2020
Temperature: 16.0°C (61°F)
Dewpoint: 15.0°C (59°F) [RH = 94%]
Pressure (altimeter): 30.06 inches Hg (1018.0 mb)
Winds: variable direction winds at 1 MPH (1 knots; 0.5 m/s)
Visibility: 6 or more miles (10+ km)
Ceiling: at least 12,000 feet AGL
Clouds: few clouds at 8000 feet AGL
Weather: no significant weather observed at this time

METAR text: LSZA 192350Z AUTO VRB02KT CAVOK 16/15 Q1018
Conditions at: LSZA (LUGANO (PVT/AUT), CH) observed 2350 UTC 19 September 2020
Temperature: 16.0°C (61°F)
Dewpoint: 15.0°C (59°F) [RH = 94%]
Pressure (altimeter): 30.06 inches Hg (1018.0 mb)
Winds: variable direction winds at 2 MPH (2 knots; 1.0 m/s)
Visibility: 6 or more miles (10+ km)
Ceiling: ceiling and visibility are OK
Clouds: unknown
Weather: no significant weather observed at this time

METAR text: LSZA 192320Z AUTO 01004KT 9999 NCD 15/14 Q1018
Conditions at: LSZA (LUGANO (PVT/AUT), CH) observed 2320 UTC 19 September 2020
Temperature: 15.0°C (59°F)
Dewpoint: 14.0°C (57°F) [RH = 94%]
Pressure (altimeter): 30.06 inches Hg (1018.0 mb)
Winds: from the N (10 degrees) at 5 MPH (4 knots; 2.1 m/s)
Visibility: 6 or more miles (10+ km)
Ceiling: at least 12,000 feet AGL
Clouds: sky clear below 12,000 feet AGL
Weather: no significant weather observed at this time

Forecast for: LSZA (LUGANO (PVT/AUT), CH)
Text: TAF LSZA 191425Z 1915/1924 VRB03KT 9999 SCT040 BKN110
Forecast period: 1500 UTC 19 September 2020 to 0000 UTC 20 September 2020
Forecast type: FROM: standard forecast or significant change
Winds: variable direction winds at 3 MPH (3 knots; 1.5 m/s)
Visibility: 6 or more miles (10+ km)
Ceiling: 11000 feet AGL
Clouds: scattered clouds at 4000 feet AGL
broken clouds at 11000 feet AGL
Weather: no significant weather forecast for this period